sensor_id;sensor_type;location;lat;lon;timestamp;pressure;altitude;pressure_sealevel;temperature
21210;BMP180;10762;42.206;25.326;2023-12-20T00:01:20;99885.00;;;6.30
21210;BMP180;10762;42.206;25.326;2023-12-20T00:03:47;99875.00;;;6.30
21210;BMP180;10762;42.206;25.326;2023-12-20T00:06:13;99878.00;;;6.30
21210;BMP180;10762;42.206;25.326;2023-12-20T00:08:39;99879.00;;;6.40
21210;BMP180;10762;42.206;25.326;2023-12-20T00:11:05;99866.00;;;6.40
21210;BMP180;10762;42.206;25.326;2023-12-20T00:13:31;99878.00;;;6.40
21210;BMP180;10762;42.206;25.326;2023-12-20T00:15:58;99871.00;;;6.40
21210;BMP180;10762;42.206;25.326;2023-12-20T00:18:24;99866.00;;;6.40
21210;BMP180;10762;42.206;25.326;2023-12-20T00:20:51;99867.00;;;6.30
21210;BMP180;10762;42.206;25.326;2023-12-20T00:23:17;99867.00;;;6.30
21210;BMP180;10762;42.206;25.326;2023-12-20T00:25:43;99860.00;;;6.30
21210;BMP180;10762;42.206;25.326;2023-12-20T00:28:10;99855.00;;;6.30
21210;BMP180;10762;42.206;25.326;2023-12-20T00:30:36;99854.00;;;6.20
21210;BMP180;10762;42.206;25.326;2023-12-20T00:33:02;99861.00;;;6.20
21210;BMP180;10762;42.206;25.326;2023-12-20T00:35:28;99850.00;;;6.20
21210;BMP180;10762;42.206;25.326;2023-12-20T00:37:54;99852.00;;;6.20
21210;BMP180;10762;42.206;25.326;2023-12-20T00:40:21;99847.00;;;6.20
21210;BMP180;10762;42.206;25.326;2023-12-20T00:42:48;99839.00;;;6.30
21210;BMP180;10762;42.206;25.326;2023-12-20T00:45:14;99839.00;;;6.30
21210;BMP180;10762;42.206;25.326;2023-12-20T00:47:40;99837.00;;;6.30
21210;BMP180;10762;42.206;25.326;2023-12-20T00:50:06;99824.00;;;6.30
21210;BMP180;10762;42.206;25.326;2023-12-20T00:52:33;99833.00;;;6.30
21210;BMP180;10762;42.206;25.326;2023-12-20T00:54:59;99827.00;;;6.30
21210;BMP180;10762;42.206;25.326;2023-12-20T00:57:25;99822.00;;;6.30
21210;BMP180;10762;42.206;25.326;2023-12-20T00:59:52;99829.00;;;6.30
21210;BMP180;10762;42.206;25.326;2023-12-20T01:02:19;99828.00;;;6.30
21210;BMP180;10762;42.206;25.326;2023-12-20T01:04:45;99829.00;;;6.30
21210;BMP180;10762;42.206;25.326;2023-12-20T01:07:11;99820.00;;;6.40
21210;BMP180;10762;42.206;25.326;2023-12-20T01:09:38;99825.00;;;6.40
21210;BMP180;10762;42.206;25.326;2023-12-20T01:12:04;99826.00;;;6.40
21210;BMP180;10762;42.206;25.326;2023-12-20T01:14:31;99821.00;;;6.40
21210;BMP180;10762;42.206;25.326;2023-12-20T01:16:57;99821.00;;;6.40
21210;BMP180;10762;42.206;25.326;2023-12-20T01:19:24;99820.00;;;6.30
21210;BMP180;10762;42.206;25.326;2023-12-20T01:21:50;99818.00;;;6.30
21210;BMP180;10762;42.206;25.326;2023-12-20T01:24:17;99804.00;;;6.20
21210;BMP180;10762;42.206;25.326;2023-12-20T01:26:43;99804.00;;;6.20
21210;BMP180;10762;42.206;25.326;2023-12-20T01:29:09;99807.00;;;6.20
21210;BMP180;10762;42.206;25.326;2023-12-20T01:31:35;99800.00;;;6.10
21210;BMP180;10762;42.206;25.326;2023-12-20T01:34:02;99797.00;;;6.00
21210;BMP180;10762;42.206;25.326;2023-12-20T01:36:28;99793.00;;;6.00
21210;BMP180;10762;42.206;25.326;2023-12-20T01:38:55;99790.00;;;6.00
21210;BMP180;10762;42.206;25.326;2023-12-20T01:41:21;99790.00;;;5.90
21210;BMP180;10762;42.206;25.326;2023-12-20T01:43:47;99788.00;;;5.90
21210;BMP180;10762;42.206;25.326;2023-12-20T01:46:13;99786.00;;;5.90
21210;BMP180;10762;42.206;25.326;2023-12-20T01:48:40;99777.00;;;5.90
21210;BMP180;10762;42.206;25.326;2023-12-20T01:51:06;99765.00;;;5.90
21210;BMP180;10762;42.206;25.326;2023-12-20T01:53:33;99768.00;;;5.80
21210;BMP180;10762;42.206;25.326;2023-12-20T01:56:00;99769.00;;;5.80
21210;BMP180;10762;42.206;25.326;2023-12-20T01:58:26;99765.00;;;5.80
21210;BMP180;10762;42.206;25.326;2023-12-20T02:00:53;99762.00;;;5.80
21210;BMP180;10762;42.206;25.326;2023-12-20T02:03:20;99759.00;;;5.80
21210;BMP180;10762;42.206;25.326;2023-12-20T02:05:46;99762.00;;;5.80
21210;BMP180;10762;42.206;25.326;2023-12-20T02:08:13;99760.00;;;5.70
21210;BMP180;10762;42.206;25.326;2023-12-20T02:10:39;99754.00;;;5.70
21210;BMP180;10762;42.206;25.326;2023-12-20T02:13:06;99748.00;;;5.70
21210;BMP180;10762;42.206;25.326;2023-12-20T02:15:32;99752.00;;;5.70
21210;BMP180;10762;42.206;25.326;2023-12-20T02:17:59;99754.00;;;5.70
21210;BMP180;10762;42.206;25.326;2023-12-20T02:20:25;99746.00;;;5.70
21210;BMP180;10762;42.206;25.326;2023-12-20T02:22:51;99747.00;;;5.70
21210;BMP180;10762;42.206;25.326;2023-12-20T02:25:17;99751.00;;;5.70
21210;BMP180;10762;42.206;25.326;2023-12-20T02:27:44;99741.00;;;5.70
21210;BMP180;10762;42.206;25.326;2023-12-20T02:30:10;99745.00;;;5.70
21210;BMP180;10762;42.206;25.326;2023-12-20T02:32:37;99738.00;;;5.70
21210;BMP180;10762;42.206;25.326;2023-12-20T02:35:03;99745.00;;;5.70
21210;BMP180;10762;42.206;25.326;2023-12-20T02:37:30;99738.00;;;5.70
21210;BMP180;10762;42.206;25.326;2023-12-20T02:39:56;99739.00;;;5.60
21210;BMP180;10762;42.206;25.326;2023-12-20T02:42:22;99737.00;;;5.60
21210;BMP180;10762;42.206;25.326;2023-12-20T02:44:49;99731.00;;;5.60
21210;BMP180;10762;42.206;25.326;2023-12-20T02:47:15;99730.00;;;5.50
21210;BMP180;10762;42.206;25.326;2023-12-20T02:49:42;99729.00;;;5.50
21210;BMP180;10762;42.206;25.326;2023-12-20T02:52:08;99720.00;;;5.50
21210;BMP180;10762;42.206;25.326;2023-12-20T02:54:34;99721.00;;;5.50
21210;BMP180;10762;42.206;25.326;2023-12-20T02:57:01;99724.00;;;5.50
21210;BMP180;10762;42.206;25.326;2023-12-20T02:59:27;99725.00;;;5.50
21210;BMP180;10762;42.206;25.326;2023-12-20T03:01:53;99715.00;;;5.50
21210;BMP180;10762;42.206;25.326;2023-12-20T03:04:19;99729.00;;;5.50
21210;BMP180;10762;42.206;25.326;2023-12-20T03:06:46;99716.00;;;5.50
21210;BMP180;10762;42.206;25.326;2023-12-20T03:09:12;99709.00;;;5.50
21210;BMP180;10762;42.206;25.326;2023-12-20T03:11:39;99701.00;;;5.50
21210;BMP180;10762;42.206;25.326;2023-12-20T03:14:06;99712.00;;;5.50
21210;BMP180;10762;42.206;25.326;2023-12-20T03:16:33;99699.00;;;5.50
21210;BMP180;10762;42.206;25.326;2023-12-20T03:18:59;99699.00;;;5.50
21210;BMP180;10762;42.206;25.326;2023-12-20T03:21:25;99704.00;;;5.50
21210;BMP180;10762;42.206;25.326;2023-12-20T03:23:51;99698.00;;;5.50
21210;BMP180;10762;42.206;25.326;2023-12-20T03:26:18;99688.00;;;5.50
21210;BMP180;10762;42.206;25.326;2023-12-20T03:28:44;99690.00;;;5.40
21210;BMP180;10762;42.206;25.326;2023-12-20T03:31:10;99674.00;;;5.40
21210;BMP180;10762;42.206;25.326;2023-12-20T03:33:37;99681.00;;;5.40
21210;BMP180;10762;42.206;25.326;2023-12-20T03:36:03;99681.00;;;5.40
21210;BMP180;10762;42.206;25.326;2023-12-20T03:38:29;99674.00;;;5.40
21210;BMP180;10762;42.206;25.326;2023-12-20T03:40:55;99679.00;;;5.40
21210;BMP180;10762;42.206;25.326;2023-12-20T03:43:21;99675.00;;;5.40
21210;BMP180;10762;42.206;25.326;2023-12-20T03:45:48;99669.00;;;5.40
21210;BMP180;10762;42.206;25.326;2023-12-20T03:48:14;99670.00;;;5.40
21210;BMP180;10762;42.206;25.326;2023-12-20T03:50:40;99657.00;;;5.40
21210;BMP180;10762;42.206;25.326;2023-12-20T03:53:06;99671.00;;;5.40
21210;BMP180;10762;42.206;25.326;2023-12-20T03:55:32;99669.00;;;5.40
21210;BMP180;10762;42.206;25.326;2023-12-20T03:57:58;99670.00;;;5.40
21210;BMP180;10762;42.206;25.326;2023-12-20T04:00:24;99666.00;;;5.40
21210;BMP180;10762;42.206;25.326;2023-12-20T04:02:51;99669.00;;;5.30
21210;BMP180;10762;42.206;25.326;2023-12-20T04:05:17;99659.00;;;5.30
21210;BMP180;10762;42.206;25.326;2023-12-20T04:07:43;99665.00;;;5.30
21210;BMP180;10762;42.206;25.326;2023-12-20T04:10:09;99661.00;;;5.20
21210;BMP180;10762;42.206;25.326;2023-12-20T04:12:35;99658.00;;;5.20
21210;BMP180;10762;42.206;25.326;2023-12-20T04:15:04;99668.00;;;5.20
21210;BMP180;10762;42.206;25.326;2023-12-20T04:17:35;99668.00;;;5.20
21210;BMP180;10762;42.206;25.326;2023-12-20T04:20:01;99660.00;;;5.20
21210;BMP180;10762;42.206;25.326;2023-12-20T04:22:28;99665.00;;;5.20
21210;BMP180;10762;42.206;25.326;2023-12-20T04:24:54;99662.00;;;5.20
21210;BMP180;10762;42.206;25.326;2023-12-20T04:27:20;99672.00;;;5.10
21210;BMP180;10762;42.206;25.326;2023-12-20T04:29:47;99674.00;;;5.10
21210;BMP180;10762;42.206;25.326;2023-12-20T04:32:13;99666.00;;;5.10
21210;BMP180;10762;42.206;25.326;2023-12-20T04:34:39;99668.00;;;5.10
21210;BMP180;10762;42.206;25.326;2023-12-20T04:37:05;99668.00;;;5.10
21210;BMP180;10762;42.206;25.326;2023-12-20T04:39:31;99657.00;;;5.00
21210;BMP180;10762;42.206;25.326;2023-12-20T04:41:59;99647.00;;;5.00
21210;BMP180;10762;42.206;25.326;2023-12-20T04:44:25;99646.00;;;5.00
21210;BMP180;10762;42.206;25.326;2023-12-20T04:46:52;99651.00;;;5.00
21210;BMP180;10762;42.206;25.326;2023-12-20T04:49:18;99660.00;;;5.00
21210;BMP180;10762;42.206;25.326;2023-12-20T04:51:44;99666.00;;;5.00
21210;BMP180;10762;42.206;25.326;2023-12-20T04:54:11;99663.00;;;5.00
21210;BMP180;10762;42.206;25.326;2023-12-20T04:56:37;99658.00;;;5.00
21210;BMP180;10762;42.206;25.326;2023-12-20T04:59:03;99653.00;;;5.00
21210;BMP180;10762;42.206;25.326;2023-12-20T05:01:29;99645.00;;;5.00
21210;BMP180;10762;42.206;25.326;2023-12-20T05:03:55;99641.00;;;4.90
21210;BMP180;10762;42.206;25.326;2023-12-20T05:06:21;99637.00;;;4.90
21210;BMP180;10762;42.206;25.326;2023-12-20T05:08:47;99642.00;;;4.90
21210;BMP180;10762;42.206;25.326;2023-12-20T05:11:13;99637.00;;;4.90
21210;BMP180;10762;42.206;25.326;2023-12-20T05:13:41;99639.00;;;4.90
21210;BMP180;10762;42.206;25.326;2023-12-20T05:16:07;99638.00;;;4.90
21210;BMP180;10762;42.206;25.326;2023-12-20T05:18:34;99628.00;;;4.90
21210;BMP180;10762;42.206;25.326;2023-12-20T05:21:00;99636.00;;;4.90
21210;BMP180;10762;42.206;25.326;2023-12-20T05:23:27;99619.00;;;4.90
21210;BMP180;10762;42.206;25.326;2023-12-20T05:25:53;99616.00;;;4.80
21210;BMP180;10762;42.206;25.326;2023-12-20T05:28:19;99607.00;;;4.80
21210;BMP180;10762;42.206;25.326;2023-12-20T05:30:45;99609.00;;;4.80
21210;BMP180;10762;42.206;25.326;2023-12-20T05:33:11;99608.00;;;4.80
21210;BMP180;10762;42.206;25.326;2023-12-20T05:35:37;99611.00;;;4.80
21210;BMP180;10762;42.206;25.326;2023-12-20T05:38:03;99601.00;;;4.80
21210;BMP180;10762;42.206;25.326;2023-12-20T05:40:29;99601.00;;;4.80
21210;BMP180;10762;42.206;25.326;2023-12-20T05:42:55;99594.00;;;4.80
21210;BMP180;10762;42.206;25.326;2023-12-20T05:45:22;99592.00;;;4.80
21210;BMP180;10762;42.206;25.326;2023-12-20T05:47:48;99584.00;;;4.80
21210;BMP180;10762;42.206;25.326;2023-12-20T05:50:14;99587.00;;;4.80
21210;BMP180;10762;42.206;25.326;2023-12-20T05:52:41;99598.00;;;4.80
21210;BMP180;10762;42.206;25.326;2023-12-20T05:55:07;99595.00;;;4.80
21210;BMP180;10762;42.206;25.326;2023-12-20T05:57:33;99597.00;;;4.80
21210;BMP180;10762;42.206;25.326;2023-12-20T05:59:59;99602.00;;;4.80
21210;BMP180;10762;42.206;25.326;2023-12-20T06:02:25;99590.00;;;4.80
21210;BMP180;10762;42.206;25.326;2023-12-20T06:04:51;99580.00;;;4.90
21210;BMP180;10762;42.206;25.326;2023-12-20T06:07:17;99583.00;;;4.90
21210;BMP180;10762;42.206;25.326;2023-12-20T06:09:44;99571.00;;;4.90
21210;BMP180;10762;42.206;25.326;2023-12-20T06:12:10;99585.00;;;5.00
21210;BMP180;10762;42.206;25.326;2023-12-20T06:14:36;99570.00;;;5.00
21210;BMP180;10762;42.206;25.326;2023-12-20T06:17:03;99575.00;;;5.00
21210;BMP180;10762;42.206;25.326;2023-12-20T06:19:29;99587.00;;;5.10
21210;BMP180;10762;42.206;25.326;2023-12-20T06:21:55;99590.00;;;5.10
21210;BMP180;10762;42.206;25.326;2023-12-20T06:24:21;99598.00;;;5.10
21210;BMP180;10762;42.206;25.326;2023-12-20T06:26:47;99585.00;;;5.20
21210;BMP180;10762;42.206;25.326;2023-12-20T06:29:13;99578.00;;;5.20
21210;BMP180;10762;42.206;25.326;2023-12-20T06:31:40;99581.00;;;5.20
21210;BMP180;10762;42.206;25.326;2023-12-20T06:34:06;99578.00;;;5.20
21210;BMP180;10762;42.206;25.326;2023-12-20T06:36:32;99573.00;;;5.20
21210;BMP180;10762;42.206;25.326;2023-12-20T06:38:58;99580.00;;;5.30
21210;BMP180;10762;42.206;25.326;2023-12-20T06:41:24;99583.00;;;5.30
21210;BMP180;10762;42.206;25.326;2023-12-20T06:43:50;99581.00;;;5.30
21210;BMP180;10762;42.206;25.326;2023-12-20T06:46:17;99572.00;;;5.30
21210;BMP180;10762;42.206;25.326;2023-12-20T06:48:43;99568.00;;;5.30
21210;BMP180;10762;42.206;25.326;2023-12-20T06:51:14;99566.00;;;5.30
21210;BMP180;10762;42.206;25.326;2023-12-20T06:53:40;99578.00;;;4.80
21210;BMP180;10762;42.206;25.326;2023-12-20T06:56:06;99574.00;;;5.50
21210;BMP180;10762;42.206;25.326;2023-12-20T06:58:33;99574.00;;;5.60
21210;BMP180;10762;42.206;25.326;2023-12-20T07:00:59;99572.00;;;5.70
21210;BMP180;10762;42.206;25.326;2023-12-20T07:03:25;99571.00;;;5.80
21210;BMP180;10762;42.206;25.326;2023-12-20T07:05:51;99565.00;;;5.90
21210;BMP180;10762;42.206;25.326;2023-12-20T07:08:17;99572.00;;;6.00
21210;BMP180;10762;42.206;25.326;2023-12-20T07:10:45;99584.00;;;6.10
21210;BMP180;10762;42.206;25.326;2023-12-20T07:13:11;99575.00;;;6.10
21210;BMP180;10762;42.206;25.326;2023-12-20T07:15:38;99574.00;;;6.10
21210;BMP180;10762;42.206;25.326;2023-12-20T07:18:04;99582.00;;;6.20
21210;BMP180;10762;42.206;25.326;2023-12-20T07:20:31;99582.00;;;6.20
21210;BMP180;10762;42.206;25.326;2023-12-20T07:22:57;99571.00;;;6.30
21210;BMP180;10762;42.206;25.326;2023-12-20T07:25:23;99577.00;;;6.40
21210;BMP180;10762;42.206;25.326;2023-12-20T07:27:49;99571.00;;;6.40
21210;BMP180;10762;42.206;25.326;2023-12-20T07:30:15;99553.00;;;6.50
21210;BMP180;10762;42.206;25.326;2023-12-20T07:32:41;99554.00;;;6.50
21210;BMP180;10762;42.206;25.326;2023-12-20T07:35:07;99556.00;;;6.60
21210;BMP180;10762;42.206;25.326;2023-12-20T07:37:34;99551.00;;;6.70
21210;BMP180;10762;42.206;25.326;2023-12-20T07:40:00;99539.00;;;6.70
21210;BMP180;10762;42.206;25.326;2023-12-20T07:42:26;99540.00;;;6.70
21210;BMP180;10762;42.206;25.326;2023-12-20T07:44:52;99526.00;;;6.80
21210;BMP180;10762;42.206;25.326;2023-12-20T07:47:19;99524.00;;;6.80
21210;BMP180;10762;42.206;25.326;2023-12-20T07:49:48;99526.00;;;6.90
21210;BMP180;10762;42.206;25.326;2023-12-20T07:52:14;99535.00;;;7.00
21210;BMP180;10762;42.206;25.326;2023-12-20T07:54:40;99517.00;;;7.10
21210;BMP180;10762;42.206;25.326;2023-12-20T07:57:07;99520.00;;;7.30
21210;BMP180;10762;42.206;25.326;2023-12-20T07:59:33;99519.00;;;7.30
21210;BMP180;10762;42.206;25.326;2023-12-20T08:01:59;99516.00;;;7.50
21210;BMP180;10762;42.206;25.326;2023-12-20T08:04:25;99517.00;;;7.60
21210;BMP180;10762;42.206;25.326;2023-12-20T08:06:51;99516.00;;;7.80
21210;BMP180;10762;42.206;25.326;2023-12-20T08:09:17;99514.00;;;7.90
21210;BMP180;10762;42.206;25.326;2023-12-20T08:11:47;99513.00;;;8.00
21210;BMP180;10762;42.206;25.326;2023-12-20T08:14:13;99509.00;;;8.20
21210;BMP180;10762;42.206;25.326;2023-12-20T08:16:39;99511.00;;;8.30
21210;BMP180;10762;42.206;25.326;2023-12-20T08:19:05;99504.00;;;8.40
21210;BMP180;10762;42.206;25.326;2023-12-20T08:21:31;99505.00;;;8.50
21210;BMP180;10762;42.206;25.326;2023-12-20T08:23:57;99512.00;;;8.60
21210;BMP180;10762;42.206;25.326;2023-12-20T08:26:23;99507.00;;;8.70
21210;BMP180;10762;42.206;25.326;2023-12-20T08:28:50;99498.00;;;8.80
21210;BMP180;10762;42.206;25.326;2023-12-20T08:31:16;99499.00;;;8.80
21210;BMP180;10762;42.206;25.326;2023-12-20T08:33:43;99486.00;;;8.80
21210;BMP180;10762;42.206;25.326;2023-12-20T08:36:10;99481.00;;;8.90
21210;BMP180;10762;42.206;25.326;2023-12-20T08:38:36;99480.00;;;8.90
21210;BMP180;10762;42.206;25.326;2023-12-20T08:41:02;99482.00;;;8.90
21210;BMP180;10762;42.206;25.326;2023-12-20T08:43:31;99477.00;;;9.00
21210;BMP180;10762;42.206;25.326;2023-12-20T08:45:57;99472.00;;;9.10
21210;BMP180;10762;42.206;25.326;2023-12-20T08:48:23;99472.00;;;9.20
21210;BMP180;10762;42.206;25.326;2023-12-20T08:50:49;99464.00;;;9.20
21210;BMP180;10762;42.206;25.326;2023-12-20T08:53:18;99461.00;;;9.30
21210;BMP180;10762;42.206;25.326;2023-12-20T08:55:44;99459.00;;;9.30
21210;BMP180;10762;42.206;25.326;2023-12-20T08:58:10;99453.00;;;9.30
21210;BMP180;10762;42.206;25.326;2023-12-20T09:00:36;99444.00;;;9.40
21210;BMP180;10762;42.206;25.326;2023-12-20T09:03:02;99445.00;;;9.20
21210;BMP180;10762;42.206;25.326;2023-12-20T09:05:29;99442.00;;;9.20
21210;BMP180;10762;42.206;25.326;2023-12-20T09:07:55;99443.00;;;9.30
21210;BMP180;10762;42.206;25.326;2023-12-20T09:10:21;99427.00;;;9.40
21210;BMP180;10762;42.206;25.326;2023-12-20T09:12:50;99431.00;;;9.40
21210;BMP180;10762;42.206;25.326;2023-12-20T09:15:17;99426.00;;;9.30
21210;BMP180;10762;42.206;25.326;2023-12-20T09:17:43;99411.00;;;9.30
21210;BMP180;10762;42.206;25.326;2023-12-20T09:20:09;99390.00;;;9.30
21210;BMP180;10762;42.206;25.326;2023-12-20T09:22:36;99389.00;;;9.20
21210;BMP180;10762;42.206;25.326;2023-12-20T09:25:04;99383.00;;;9.20
21210;BMP180;10762;42.206;25.326;2023-12-20T09:27:30;99380.00;;;9.20
21210;BMP180;10762;42.206;25.326;2023-12-20T09:29:56;99376.00;;;9.20
21210;BMP180;10762;42.206;25.326;2023-12-20T09:32:23;99377.00;;;9.30
21210;BMP180;10762;42.206;25.326;2023-12-20T09:34:49;99376.00;;;9.50
21210;BMP180;10762;42.206;25.326;2023-12-20T09:37:15;99363.00;;;9.60
21210;BMP180;10762;42.206;25.326;2023-12-20T09:39:41;99356.00;;;9.70
21210;BMP180;10762;42.206;25.326;2023-12-20T09:42:07;99351.00;;;9.90
21210;BMP180;10762;42.206;25.326;2023-12-20T09:44:33;99357.00;;;10.10
21210;BMP180;10762;42.206;25.326;2023-12-20T09:47:03;99344.00;;;10.10
21210;BMP180;10762;42.206;25.326;2023-12-20T09:49:29;99348.00;;;10.30
21210;BMP180;10762;42.206;25.326;2023-12-20T09:51:56;99344.00;;;10.40
21210;BMP180;10762;42.206;25.326;2023-12-20T09:54:22;99338.00;;;10.60
21210;BMP180;10762;42.206;25.326;2023-12-20T09:56:49;99330.00;;;10.70
21210;BMP180;10762;42.206;25.326;2023-12-20T09:59:15;99322.00;;;10.90
21210;BMP180;10762;42.206;25.326;2023-12-20T10:01:42;99319.00;;;11.10
21210;BMP180;10762;42.206;25.326;2023-12-20T10:04:09;99313.00;;;11.20
21210;BMP180;10762;42.206;25.326;2023-12-20T10:06:39;99307.00;;;11.30
21210;BMP180;10762;42.206;25.326;2023-12-20T10:09:05;99306.00;;;11.40
21210;BMP180;10762;42.206;25.326;2023-12-20T10:11:31;99307.00;;;11.50
21210;BMP180;10762;42.206;25.326;2023-12-20T10:14:00;99298.00;;;11.50
21210;BMP180;10762;42.206;25.326;2023-12-20T10:16:27;99296.00;;;11.50
21210;BMP180;10762;42.206;25.326;2023-12-20T10:18:54;99289.00;;;11.40
21210;BMP180;10762;42.206;25.326;2023-12-20T10:21:20;99289.00;;;11.50
21210;BMP180;10762;42.206;25.326;2023-12-20T10:23:50;99284.00;;;11.60
21210;BMP180;10762;42.206;25.326;2023-12-20T10:26:24;99282.00;;;11.70
21210;BMP180;10762;42.206;25.326;2023-12-20T10:28:54;99280.00;;;11.70
21210;BMP180;10762;42.206;25.326;2023-12-20T10:31:30;99271.00;;;11.80
21210;BMP180;10762;42.206;25.326;2023-12-20T10:33:57;99266.00;;;11.80
21210;BMP180;10762;42.206;25.326;2023-12-20T10:36:25;99270.00;;;11.90
21210;BMP180;10762;42.206;25.326;2023-12-20T10:38:53;99266.00;;;12.00
21210;BMP180;10762;42.206;25.326;2023-12-20T10:41:21;99253.00;;;12.00
21210;BMP180;10762;42.206;25.326;2023-12-20T10:43:51;99244.00;;;12.00
21210;BMP180;10762;42.206;25.326;2023-12-20T10:46:19;99234.00;;;12.00
21210;BMP180;10762;42.206;25.326;2023-12-20T10:48:46;99238.00;;;12.10
21210;BMP180;10762;42.206;25.326;2023-12-20T10:51:13;99242.00;;;12.20
21210;BMP180;10762;42.206;25.326;2023-12-20T10:53:39;99242.00;;;12.30
21210;BMP180;10762;42.206;25.326;2023-12-20T10:56:06;99234.00;;;12.30
21210;BMP180;10762;42.206;25.326;2023-12-20T10:58:33;99221.00;;;12.30
21210;BMP180;10762;42.206;25.326;2023-12-20T11:01:01;99216.00;;;12.30
21210;BMP180;10762;42.206;25.326;2023-12-20T11:03:32;99205.00;;;12.30
21210;BMP180;10762;42.206;25.326;2023-12-20T11:06:08;99198.00;;;12.40
21210;BMP180;10762;42.206;25.326;2023-12-20T11:08:38;99202.00;;;12.40
21210;BMP180;10762;42.206;25.326;2023-12-20T11:11:07;99206.00;;;12.50
21210;BMP180;10762;42.206;25.326;2023-12-20T11:13:37;99195.00;;;12.60
21210;BMP180;10762;42.206;25.326;2023-12-20T11:16:04;99192.00;;;12.60
21210;BMP180;10762;42.206;25.326;2023-12-20T11:18:30;99184.00;;;12.70
21210;BMP180;10762;42.206;25.326;2023-12-20T11:21:05;99192.00;;;12.70
21210;BMP180;10762;42.206;25.326;2023-12-20T11:23:32;99182.00;;;12.70
21210;BMP180;10762;42.206;25.326;2023-12-20T11:26:03;99165.00;;;12.70
21210;BMP180;10762;42.206;25.326;2023-12-20T11:28:29;99163.00;;;12.70
21210;BMP180;10762;42.206;25.326;2023-12-20T11:30:58;99163.00;;;12.60
21210;BMP180;10762;42.206;25.326;2023-12-20T11:33:26;99167.00;;;12.60
21210;BMP180;10762;42.206;25.326;2023-12-20T11:35:55;99167.00;;;12.70
21210;BMP180;10762;42.206;25.326;2023-12-20T11:38:21;99164.00;;;12.70
21210;BMP180;10762;42.206;25.326;2023-12-20T11:40:49;99147.00;;;12.70
21210;BMP180;10762;42.206;25.326;2023-12-20T11:46:05;99153.00;;;12.60
21210;BMP180;10762;42.206;25.326;2023-12-20T11:48:37;99137.00;;;12.60
21210;BMP180;10762;42.206;25.326;2023-12-20T11:51:10;99138.00;;;12.60
21210;BMP180;10762;42.206;25.326;2023-12-20T11:53:37;99130.00;;;12.60
21210;BMP180;10762;42.206;25.326;2023-12-20T11:56:04;99134.00;;;12.60
21210;BMP180;10762;42.206;25.326;2023-12-20T11:58:30;99124.00;;;12.60
21210;BMP180;10762;42.206;25.326;2023-12-20T12:00:57;99127.00;;;12.60
21210;BMP180;10762;42.206;25.326;2023-12-20T12:03:26;99120.00;;;12.50
21210;BMP180;10762;42.206;25.326;2023-12-20T12:05:52;99110.00;;;12.50
21210;BMP180;10762;42.206;25.326;2023-12-20T12:08:20;99110.00;;;12.50
21210;BMP180;10762;42.206;25.326;2023-12-20T12:10:50;99102.00;;;12.60
21210;BMP180;10762;42.206;25.326;2023-12-20T12:13:16;99091.00;;;12.60
21210;BMP180;10762;42.206;25.326;2023-12-20T12:15:43;99092.00;;;12.60
21210;BMP180;10762;42.206;25.326;2023-12-20T12:18:10;99084.00;;;12.60
21210;BMP180;10762;42.206;25.326;2023-12-20T12:20:38;99075.00;;;12.60
21210;BMP180;10762;42.206;25.326;2023-12-20T12:23:04;99073.00;;;12.60
21210;BMP180;10762;42.206;25.326;2023-12-20T12:25:32;99078.00;;;12.70
21210;BMP180;10762;42.206;25.326;2023-12-20T12:28:00;99075.00;;;12.70
21210;BMP180;10762;42.206;25.326;2023-12-20T12:30:29;99070.00;;;12.70
21210;BMP180;10762;42.206;25.326;2023-12-20T12:32:56;99076.00;;;12.70
21210;BMP180;10762;42.206;25.326;2023-12-20T12:35:23;99070.00;;;12.70
21210;BMP180;10762;42.206;25.326;2023-12-20T12:37:49;99083.00;;;12.70
21210;BMP180;10762;42.206;25.326;2023-12-20T12:40:17;99080.00;;;12.80
21210;BMP180;10762;42.206;25.326;2023-12-20T12:42:44;99072.00;;;12.80
21210;BMP180;10762;42.206;25.326;2023-12-20T12:45:11;99060.00;;;12.80
21210;BMP180;10762;42.206;25.326;2023-12-20T12:47:38;99054.00;;;12.80
21210;BMP180;10762;42.206;25.326;2023-12-20T12:50:06;99042.00;;;12.80
21210;BMP180;10762;42.206;25.326;2023-12-20T12:52:34;99039.00;;;12.90
21210;BMP180;10762;42.206;25.326;2023-12-20T12:55:02;99040.00;;;12.90
21210;BMP180;10762;42.206;25.326;2023-12-20T12:57:30;99039.00;;;12.90
21210;BMP180;10762;42.206;25.326;2023-12-20T12:59:57;99041.00;;;13.00
21210;BMP180;10762;42.206;25.326;2023-12-20T13:02:24;99052.00;;;13.00
21210;BMP180;10762;42.206;25.326;2023-12-20T13:04:52;99059.00;;;13.00
21210;BMP180;10762;42.206;25.326;2023-12-20T13:07:19;99054.00;;;13.00
21210;BMP180;10762;42.206;25.326;2023-12-20T13:09:46;99049.00;;;13.10
21210;BMP180;10762;42.206;25.326;2023-12-20T13:12:13;99047.00;;;13.10
21210;BMP180;10762;42.206;25.326;2023-12-20T13:14:39;99027.00;;;13.10
21210;BMP180;10762;42.206;25.326;2023-12-20T13:17:06;99031.00;;;13.10
21210;BMP180;10762;42.206;25.326;2023-12-20T13:19:34;99037.00;;;13.10
21210;BMP180;10762;42.206;25.326;2023-12-20T13:22:02;99042.00;;;13.00
21210;BMP180;10762;42.206;25.326;2023-12-20T13:24:30;99033.00;;;13.00
21210;BMP180;10762;42.206;25.326;2023-12-20T13:26:58;99041.00;;;13.00
21210;BMP180;10762;42.206;25.326;2023-12-20T13:29:24;99034.00;;;13.00
21210;BMP180;10762;42.206;25.326;2023-12-20T13:31:53;99028.00;;;12.90
21210;BMP180;10762;42.206;25.326;2023-12-20T13:34:20;99031.00;;;12.90
21210;BMP180;10762;42.206;25.326;2023-12-20T13:36:47;99031.00;;;12.90
21210;BMP180;10762;42.206;25.326;2023-12-20T13:39:16;99030.00;;;12.90
21210;BMP180;10762;42.206;25.326;2023-12-20T13:41:44;99021.00;;;12.90
21210;BMP180;10762;42.206;25.326;2023-12-20T13:44:11;99015.00;;;12.80
21210;BMP180;10762;42.206;25.326;2023-12-20T13:46:38;99016.00;;;12.80
21210;BMP180;10762;42.206;25.326;2023-12-20T13:49:05;99016.00;;;12.80
21210;BMP180;10762;42.206;25.326;2023-12-20T13:51:33;99014.00;;;12.70
21210;BMP180;10762;42.206;25.326;2023-12-20T13:54:00;99012.00;;;12.70
21210;BMP180;10762;42.206;25.326;2023-12-20T13:56:27;99008.00;;;12.60
21210;BMP180;10762;42.206;25.326;2023-12-20T13:58:54;99011.00;;;12.50
21210;BMP180;10762;42.206;25.326;2023-12-20T14:01:22;99003.00;;;12.50
21210;BMP180;10762;42.206;25.326;2023-12-20T14:03:49;98998.00;;;12.40